sensor_id;sensor_type;location;lat;lon;timestamp;P1;durP1;ratioP1;P2;durP2;ratioP2
56242;SDS011;42155;53.096;23.226;2023-06-04T00:01:57;15.13;;;5.97;;
56242;SDS011;42155;53.096;23.226;2023-06-04T00:03:58;14.77;;;5.95;;
56242;SDS011;42155;53.096;23.226;2023-06-04T00:05:58;13.65;;;6.07;;
56242;SDS011;42155;53.096;23.226;2023-06-04T00:07:58;22.13;;;7.45;;
56242;SDS011;42155;53.096;23.226;2023-06-04T00:09:59;17.73;;;6.45;;
56242;SDS011;42155;53.096;23.226;2023-06-04T00:11:59;11.68;;;5.55;;
56242;SDS011;42155;53.096;23.226;2023-06-04T00:14:00;13.68;;;5.50;;
56242;SDS011;42155;53.096;23.226;2023-06-04T00:16:00;18.45;;;5.47;;
56242;SDS011;42155;53.096;23.226;2023-06-04T00:18:00;13.73;;;6.25;;
56242;SDS011;42155;53.096;23.226;2023-06-04T00:20:01;14.90;;;5.75;;
56242;SDS011;42155;53.096;23.226;2023-06-04T00:22:02;19.70;;;6.28;;
56242;SDS011;42155;53.096;23.226;2023-06-04T00:24:02;12.35;;;5.25;;
56242;SDS011;42155;53.096;23.226;2023-06-04T00:26:03;15.57;;;5.40;;
56242;SDS011;42155;53.096;23.226;2023-06-04T00:28:03;15.50;;;5.22;;
56242;SDS011;42155;53.096;23.226;2023-06-04T00:30:04;10.40;;;5.03;;
56242;SDS011;42155;53.096;23.226;2023-06-04T00:32:05;10.80;;;5.10;;
56242;SDS011;42155;53.096;23.226;2023-06-04T00:34:05;14.23;;;5.82;;
56242;SDS011;42155;53.096;23.226;2023-06-04T00:36:06;16.92;;;6.55;;
56242;SDS011;42155;53.096;23.226;2023-06-04T00:38:07;13.00;;;6.15;;
56242;SDS011;42155;53.096;23.226;2023-06-04T00:40:07;14.07;;;5.68;;
56242;SDS011;42155;53.096;23.226;2023-06-04T00:42:08;13.48;;;6.30;;
56242;SDS011;42155;53.096;23.226;2023-06-04T00:44:08;13.65;;;5.15;;
56242;SDS011;42155;53.096;23.226;2023-06-04T00:46:08;14.95;;;5.63;;
56242;SDS011;42155;53.096;23.226;2023-06-04T00:48:09;16.05;;;6.00;;
56242;SDS011;42155;53.096;23.226;2023-06-04T00:50:09;16.23;;;6.63;;
56242;SDS011;42155;53.096;23.226;2023-06-04T00:52:10;22.02;;;6.82;;
56242;SDS011;42155;53.096;23.226;2023-06-04T00:54:13;13.82;;;6.25;;
56242;SDS011;42155;53.096;23.226;2023-06-04T00:56:15;16.63;;;7.35;;
56242;SDS011;42155;53.096;23.226;2023-06-04T00:58:16;13.07;;;6.43;;
56242;SDS011;42155;53.096;23.226;2023-06-04T01:00:17;15.70;;;6.80;;
56242;SDS011;42155;53.096;23.226;2023-06-04T01:02:19;14.32;;;5.90;;
56242;SDS011;42155;53.096;23.226;2023-06-04T01:06:38;11.73;;;5.68;;
56242;SDS011;42155;53.096;23.226;2023-06-04T01:08:42;12.98;;;5.32;;
56242;SDS011;42155;53.096;23.226;2023-06-04T01:10:50;12.10;;;5.70;;
56242;SDS011;42155;53.096;23.226;2023-06-04T01:12:54;11.77;;;5.72;;
56242;SDS011;42155;53.096;23.226;2023-06-04T01:14:55;11.60;;;5.53;;
56242;SDS011;42155;53.096;23.226;2023-06-04T01:16:56;10.65;;;5.57;;
56242;SDS011;42155;53.096;23.226;2023-06-04T01:19:00;11.68;;;5.40;;
56242;SDS011;42155;53.096;23.226;2023-06-04T01:21:06;18.20;;;5.50;;
56242;SDS011;42155;53.096;23.226;2023-06-04T01:25:33;11.43;;;5.75;;
56242;SDS011;42155;53.096;23.226;2023-06-04T01:27:35;11.30;;;5.10;;
56242;SDS011;42155;53.096;23.226;2023-06-04T01:29:36;12.75;;;5.18;;
56242;SDS011;42155;53.096;23.226;2023-06-04T01:31:38;15.05;;;5.65;;
56242;SDS011;42155;53.096;23.226;2023-06-04T01:33:40;12.10;;;4.60;;
56242;SDS011;42155;53.096;23.226;2023-06-04T01:35:41;13.63;;;5.22;;
56242;SDS011;42155;53.096;23.226;2023-06-04T01:37:42;16.55;;;4.82;;
56242;SDS011;42155;53.096;23.226;2023-06-04T01:39:43;15.25;;;5.13;;
56242;SDS011;42155;53.096;23.226;2023-06-04T01:41:44;12.55;;;5.95;;
56242;SDS011;42155;53.096;23.226;2023-06-04T01:43:44;12.57;;;4.93;;
56242;SDS011;42155;53.096;23.226;2023-06-04T01:45:45;13.07;;;5.22;;
56242;SDS011;42155;53.096;23.226;2023-06-04T01:47:46;11.02;;;5.45;;
56242;SDS011;42155;53.096;23.226;2023-06-04T01:49:46;14.27;;;5.10;;
56242;SDS011;42155;53.096;23.226;2023-06-04T01:51:47;15.15;;;4.82;;
56242;SDS011;42155;53.096;23.226;2023-06-04T01:53:48;9.32;;;4.40;;
56242;SDS011;42155;53.096;23.226;2023-06-04T01:55:48;10.82;;;4.93;;
56242;SDS011;42155;53.096;23.226;2023-06-04T01:57:49;12.40;;;5.03;;
56242;SDS011;42155;53.096;23.226;2023-06-04T01:59:49;14.00;;;5.35;;
56242;SDS011;42155;53.096;23.226;2023-06-04T02:01:50;11.63;;;4.72;;
56242;SDS011;42155;53.096;23.226;2023-06-04T02:03:50;11.93;;;4.85;;
56242;SDS011;42155;53.096;23.226;2023-06-04T02:05:51;9.98;;;4.72;;
56242;SDS011;42155;53.096;23.226;2023-06-04T02:07:51;8.30;;;4.50;;
56242;SDS011;42155;53.096;23.226;2023-06-04T02:09:52;10.55;;;4.68;;
56242;SDS011;42155;53.096;23.226;2023-06-04T02:11:53;10.35;;;5.10;;
56242;SDS011;42155;53.096;23.226;2023-06-04T02:13:54;14.20;;;4.40;;
56242;SDS011;42155;53.096;23.226;2023-06-04T02:15:55;12.52;;;4.43;;
56242;SDS011;42155;53.096;23.226;2023-06-04T02:17:59;9.88;;;4.70;;
56242;SDS011;42155;53.096;23.226;2023-06-04T02:20:12;7.80;;;4.30;;
56242;SDS011;42155;53.096;23.226;2023-06-04T02:22:12;8.73;;;4.15;;
56242;SDS011;42155;53.096;23.226;2023-06-04T02:24:14;8.13;;;4.13;;
56242;SDS011;42155;53.096;23.226;2023-06-04T02:26:16;8.68;;;4.18;;
56242;SDS011;42155;53.096;23.226;2023-06-04T02:28:17;8.15;;;4.13;;
56242;SDS011;42155;53.096;23.226;2023-06-04T02:30:18;7.35;;;4.15;;
56242;SDS011;42155;53.096;23.226;2023-06-04T02:32:19;7.03;;;3.97;;
56242;SDS011;42155;53.096;23.226;2023-06-04T02:34:20;10.07;;;4.13;;
56242;SDS011;42155;53.096;23.226;2023-06-04T02:36:21;7.53;;;3.70;;
56242;SDS011;42155;53.096;23.226;2023-06-04T02:38:24;11.15;;;4.25;;
56242;SDS011;42155;53.096;23.226;2023-06-04T02:40:25;7.72;;;4.05;;
56242;SDS011;42155;53.096;23.226;2023-06-04T02:42:26;9.00;;;4.10;;
56242;SDS011;42155;53.096;23.226;2023-06-04T02:44:26;11.07;;;4.78;;
56242;SDS011;42155;53.096;23.226;2023-06-04T02:46:28;6.97;;;4.18;;
56242;SDS011;42155;53.096;23.226;2023-06-04T02:48:28;6.82;;;3.90;;
56242;SDS011;42155;53.096;23.226;2023-06-04T02:50:29;10.00;;;4.50;;
56242;SDS011;42155;53.096;23.226;2023-06-04T02:52:30;13.77;;;5.70;;
56242;SDS011;42155;53.096;23.226;2023-06-04T02:54:30;12.20;;;5.30;;
56242;SDS011;42155;53.096;23.226;2023-06-04T02:56:31;11.70;;;5.20;;
56242;SDS011;42155;53.096;23.226;2023-06-04T02:58:32;11.80;;;5.00;;
56242;SDS011;42155;53.096;23.226;2023-06-04T03:00:32;12.18;;;5.63;;
56242;SDS011;42155;53.096;23.226;2023-06-04T03:02:32;8.50;;;4.20;;
56242;SDS011;42155;53.096;23.226;2023-06-04T03:04:33;9.35;;;4.93;;
56242;SDS011;42155;53.096;23.226;2023-06-04T03:06:33;7.80;;;4.88;;
56242;SDS011;42155;53.096;23.226;2023-06-04T03:08:33;10.40;;;5.20;;
56242;SDS011;42155;53.096;23.226;2023-06-04T03:10:34;10.20;;;5.10;;
56242;SDS011;42155;53.096;23.226;2023-06-04T03:12:34;9.25;;;4.85;;
56242;SDS011;42155;53.096;23.226;2023-06-04T03:14:34;11.93;;;5.20;;
56242;SDS011;42155;53.096;23.226;2023-06-04T03:16:35;10.02;;;4.75;;
56242;SDS011;42155;53.096;23.226;2023-06-04T03:18:36;12.23;;;4.90;;
56242;SDS011;42155;53.096;23.226;2023-06-04T03:20:38;8.82;;;4.80;;
56242;SDS011;42155;53.096;23.226;2023-06-04T03:22:39;9.82;;;5.43;;
56242;SDS011;42155;53.096;23.226;2023-06-04T03:24:47;11.23;;;5.35;;
56242;SDS011;42155;53.096;23.226;2023-06-04T03:26:48;16.15;;;4.85;;
56242;SDS011;42155;53.096;23.226;2023-06-04T03:28:48;11.18;;;4.32;;
56242;SDS011;42155;53.096;23.226;2023-06-04T03:30:49;7.93;;;4.18;;
56242;SDS011;42155;53.096;23.226;2023-06-04T03:32:52;6.90;;;3.55;;
56242;SDS011;42155;53.096;23.226;2023-06-04T03:34:53;6.82;;;3.83;;
56242;SDS011;42155;53.096;23.226;2023-06-04T03:36:54;7.10;;;3.47;;
56242;SDS011;42155;53.096;23.226;2023-06-04T03:38:57;10.18;;;3.55;;
56242;SDS011;42155;53.096;23.226;2023-06-04T03:40:58;7.65;;;3.88;;
56242;SDS011;42155;53.096;23.226;2023-06-04T03:42:58;11.57;;;3.90;;
56242;SDS011;42155;53.096;23.226;2023-06-04T03:44:58;10.73;;;3.38;;
56242;SDS011;42155;53.096;23.226;2023-06-04T03:46:59;6.18;;;3.10;;
56242;SDS011;42155;53.096;23.226;2023-06-04T03:48:59;6.50;;;3.20;;
56242;SDS011;42155;53.096;23.226;2023-06-04T03:51:00;4.00;;;2.70;;
56242;SDS011;42155;53.096;23.226;2023-06-04T03:53:01;8.00;;;3.25;;
56242;SDS011;42155;53.096;23.226;2023-06-04T03:55:01;6.40;;;3.17;;
56242;SDS011;42155;53.096;23.226;2023-06-04T03:57:03;11.32;;;3.60;;
56242;SDS011;42155;53.096;23.226;2023-06-04T03:59:04;8.32;;;3.58;;
56242;SDS011;42155;53.096;23.226;2023-06-04T04:01:05;5.15;;;3.15;;
56242;SDS011;42155;53.096;23.226;2023-06-04T04:03:05;5.35;;;2.83;;
56242;SDS011;42155;53.096;23.226;2023-06-04T04:05:05;5.47;;;2.92;;
56242;SDS011;42155;53.096;23.226;2023-06-04T04:07:06;7.88;;;3.45;;
56242;SDS011;42155;53.096;23.226;2023-06-04T04:09:06;6.47;;;2.80;;
56242;SDS011;42155;53.096;23.226;2023-06-04T04:11:07;4.82;;;2.70;;
56242;SDS011;42155;53.096;23.226;2023-06-04T04:13:08;5.63;;;2.55;;
56242;SDS011;42155;53.096;23.226;2023-06-04T04:15:08;5.43;;;2.30;;
56242;SDS011;42155;53.096;23.226;2023-06-04T04:17:09;6.38;;;2.25;;
56242;SDS011;42155;53.096;23.226;2023-06-04T04:19:09;3.55;;;1.90;;
56242;SDS011;42155;53.096;23.226;2023-06-04T04:21:10;4.10;;;1.77;;
56242;SDS011;42155;53.096;23.226;2023-06-04T04:23:11;7.13;;;1.80;;
56242;SDS011;42155;53.096;23.226;2023-06-04T04:25:11;4.68;;;1.83;;
56242;SDS011;42155;53.096;23.226;2023-06-04T04:27:13;5.88;;;1.77;;
56242;SDS011;42155;53.096;23.226;2023-06-04T04:29:14;3.22;;;1.60;;
56242;SDS011;42155;53.096;23.226;2023-06-04T04:31:16;4.45;;;1.40;;
56242;SDS011;42155;53.096;23.226;2023-06-04T04:33:21;6.30;;;1.60;;
56242;SDS011;42155;53.096;23.226;2023-06-04T04:35:21;3.35;;;1.50;;
56242;SDS011;42155;53.096;23.226;2023-06-04T04:37:24;3.10;;;1.70;;
56242;SDS011;42155;53.096;23.226;2023-06-04T04:39:28;3.08;;;1.52;;
56242;SDS011;42155;53.096;23.226;2023-06-04T04:41:29;3.35;;;1.60;;
56242;SDS011;42155;53.096;23.226;2023-06-04T04:43:33;4.38;;;1.52;;
56242;SDS011;42155;53.096;23.226;2023-06-04T04:45:36;3.50;;;1.80;;
56242;SDS011;42155;53.096;23.226;2023-06-04T04:47:38;3.15;;;1.63;;
56242;SDS011;42155;53.096;23.226;2023-06-04T04:49:40;2.65;;;1.25;;
56242;SDS011;42155;53.096;23.226;2023-06-04T04:51:40;3.47;;;1.60;;
56242;SDS011;42155;53.096;23.226;2023-06-04T04:53:41;3.75;;;1.80;;
56242;SDS011;42155;53.096;23.226;2023-06-04T04:55:41;1.85;;;1.30;;
56242;SDS011;42155;53.096;23.226;2023-06-04T04:57:42;3.20;;;1.33;;
56242;SDS011;42155;53.096;23.226;2023-06-04T04:59:42;3.80;;;1.60;;
56242;SDS011;42155;53.096;23.226;2023-06-04T05:01:54;4.68;;;1.98;;
56242;SDS011;42155;53.096;23.226;2023-06-04T05:04:42;4.28;;;1.98;;
56242;SDS011;42155;53.096;23.226;2023-06-04T05:06:43;3.15;;;1.83;;
56242;SDS011;42155;53.096;23.226;2023-06-04T05:08:47;2.60;;;1.30;;
56242;SDS011;42155;53.096;23.226;2023-06-04T05:10:49;2.53;;;1.80;;
56242;SDS011;42155;53.096;23.226;2023-06-04T05:12:55;3.25;;;1.48;;
56242;SDS011;42155;53.096;23.226;2023-06-04T05:15:02;2.37;;;1.40;;
56242;SDS011;42155;53.096;23.226;2023-06-04T05:17:02;2.83;;;1.60;;
56242;SDS011;42155;53.096;23.226;2023-06-04T05:19:06;6.65;;;1.48;;
56242;SDS011;42155;53.096;23.226;2023-06-04T05:21:07;3.97;;;1.70;;
56242;SDS011;42155;53.096;23.226;2023-06-04T05:23:08;3.10;;;1.52;;
56242;SDS011;42155;53.096;23.226;2023-06-04T05:28:07;2.13;;;1.27;;
56242;SDS011;42155;53.096;23.226;2023-06-04T05:30:12;2.75;;;1.30;;
56242;SDS011;42155;53.096;23.226;2023-06-04T05:32:13;4.43;;;1.50;;
56242;SDS011;42155;53.096;23.226;2023-06-04T05:34:13;2.97;;;1.25;;
56242;SDS011;42155;53.096;23.226;2023-06-04T05:36:14;2.90;;;1.00;;
56242;SDS011;42155;53.096;23.226;2023-06-04T05:38:16;1.95;;;0.98;;
56242;SDS011;42155;53.096;23.226;2023-06-04T05:40:16;4.40;;;1.33;;
56242;SDS011;42155;53.096;23.226;2023-06-04T05:42:17;11.07;;;1.52;;
56242;SDS011;42155;53.096;23.226;2023-06-04T05:44:19;1.73;;;1.10;;
56242;SDS011;42155;53.096;23.226;2023-06-04T05:46:19;2.22;;;1.10;;
56242;SDS011;42155;53.096;23.226;2023-06-04T05:48:19;2.00;;;1.20;;
56242;SDS011;42155;53.096;23.226;2023-06-04T05:50:20;4.65;;;1.30;;
56242;SDS011;42155;53.096;23.226;2023-06-04T05:52:21;2.90;;;1.25;;
56242;SDS011;42155;53.096;23.226;2023-06-04T05:54:22;4.57;;;1.40;;
56242;SDS011;42155;53.096;23.226;2023-06-04T05:56:23;3.67;;;1.20;;
56242;SDS011;42155;53.096;23.226;2023-06-04T05:58:24;4.35;;;1.40;;
56242;SDS011;42155;53.096;23.226;2023-06-04T06:00:24;4.03;;;1.13;;
56242;SDS011;42155;53.096;23.226;2023-06-04T06:02:25;10.55;;;1.23;;
56242;SDS011;42155;53.096;23.226;2023-06-04T06:04:25;3.40;;;1.50;;
56242;SDS011;42155;53.096;23.226;2023-06-04T06:06:26;2.05;;;0.95;;
56242;SDS011;42155;53.096;23.226;2023-06-04T06:08:26;3.13;;;1.10;;
56242;SDS011;42155;53.096;23.226;2023-06-04T06:10:26;4.63;;;1.20;;
56242;SDS011;42155;53.096;23.226;2023-06-04T06:12:27;2.17;;;1.20;;
56242;SDS011;42155;53.096;23.226;2023-06-04T06:14:27;4.28;;;1.30;;
56242;SDS011;42155;53.096;23.226;2023-06-04T06:16:27;2.95;;;1.23;;
56242;SDS011;42155;53.096;23.226;2023-06-04T06:18:28;3.10;;;1.17;;
56242;SDS011;42155;53.096;23.226;2023-06-04T06:20:28;2.97;;;1.30;;
56242;SDS011;42155;53.096;23.226;2023-06-04T06:22:28;2.10;;;1.10;;
56242;SDS011;42155;53.096;23.226;2023-06-04T06:24:29;1.58;;;1.08;;
56242;SDS011;42155;53.096;23.226;2023-06-04T06:26:29;2.28;;;1.00;;
56242;SDS011;42155;53.096;23.226;2023-06-04T06:28:30;7.47;;;1.20;;
56242;SDS011;42155;53.096;23.226;2023-06-04T06:30:30;2.10;;;1.13;;
56242;SDS011;42155;53.096;23.226;2023-06-04T06:32:30;4.57;;;1.00;;
56242;SDS011;42155;53.096;23.226;2023-06-04T06:34:31;3.35;;;0.90;;
56242;SDS011;42155;53.096;23.226;2023-06-04T06:36:31;2.55;;;1.35;;
56242;SDS011;42155;53.096;23.226;2023-06-04T06:38:31;3.28;;;1.20;;
56242;SDS011;42155;53.096;23.226;2023-06-04T06:40:32;2.40;;;1.15;;
56242;SDS011;42155;53.096;23.226;2023-06-04T06:42:32;4.90;;;1.15;;
56242;SDS011;42155;53.096;23.226;2023-06-04T06:44:32;4.18;;;1.10;;
56242;SDS011;42155;53.096;23.226;2023-06-04T06:46:33;3.35;;;1.10;;
56242;SDS011;42155;53.096;23.226;2023-06-04T06:48:33;2.45;;;1.02;;
56242;SDS011;42155;53.096;23.226;2023-06-04T06:50:34;2.08;;;1.20;;
56242;SDS011;42155;53.096;23.226;2023-06-04T06:52:37;3.13;;;1.17;;
56242;SDS011;42155;53.096;23.226;2023-06-04T06:54:38;3.17;;;1.10;;
56242;SDS011;42155;53.096;23.226;2023-06-04T06:56:38;1.60;;;0.90;;
56242;SDS011;42155;53.096;23.226;2023-06-04T06:58:39;2.55;;;0.90;;
56242;SDS011;42155;53.096;23.226;2023-06-04T07:00:39;1.83;;;1.17;;
56242;SDS011;42155;53.096;23.226;2023-06-04T07:02:40;1.77;;;0.95;;
56242;SDS011;42155;53.096;23.226;2023-06-04T07:04:40;7.90;;;1.20;;
56242;SDS011;42155;53.096;23.226;2023-06-04T07:06:40;6.18;;;1.20;;
56242;SDS011;42155;53.096;23.226;2023-06-04T07:08:41;3.90;;;1.08;;
56242;SDS011;42155;53.096;23.226;2023-06-04T07:10:43;4.00;;;1.35;;
56242;SDS011;42155;53.096;23.226;2023-06-04T07:12:48;2.53;;;1.35;;
56242;SDS011;42155;53.096;23.226;2023-06-04T07:14:50;2.47;;;1.20;;
56242;SDS011;42155;53.096;23.226;2023-06-04T07:16:50;2.35;;;1.15;;
56242;SDS011;42155;53.096;23.226;2023-06-04T07:18:51;5.80;;;0.82;;
56242;SDS011;42155;53.096;23.226;2023-06-04T07:20:52;1.65;;;0.80;;
56242;SDS011;42155;53.096;23.226;2023-06-04T07:22:55;1.27;;;0.90;;
56242;SDS011;42155;53.096;23.226;2023-06-04T07:25:04;1.75;;;0.80;;
56242;SDS011;42155;53.096;23.226;2023-06-04T07:27:12;3.03;;;1.00;;
56242;SDS011;42155;53.096;23.226;2023-06-04T07:29:13;2.13;;;0.93;;
56242;SDS011;42155;53.096;23.226;2023-06-04T07:31:17;3.30;;;0.95;;
56242;SDS011;42155;53.096;23.226;2023-06-04T07:33:18;2.13;;;1.00;;
56242;SDS011;42155;53.096;23.226;2023-06-04T07:35:23;2.58;;;0.90;;
56242;SDS011;42155;53.096;23.226;2023-06-04T07:37:23;1.73;;;0.90;;
56242;SDS011;42155;53.096;23.226;2023-06-04T07:39:24;1.35;;;0.88;;
56242;SDS011;42155;53.096;23.226;2023-06-04T07:41:25;2.50;;;1.02;;
56242;SDS011;42155;53.096;23.226;2023-06-04T07:43:25;1.17;;;0.82;;
56242;SDS011;42155;53.096;23.226;2023-06-04T07:45:26;2.20;;;1.00;;
56242;SDS011;42155;53.096;23.226;2023-06-04T07:47:26;2.65;;;0.77;;
56242;SDS011;42155;53.096;23.226;2023-06-04T07:49:30;3.58;;;1.10;;
56242;SDS011;42155;53.096;23.226;2023-06-04T07:51:31;1.30;;;0.80;;
56242;SDS011;42155;53.096;23.226;2023-06-04T07:53:40;1.85;;;0.82;;
56242;SDS011;42155;53.096;23.226;2023-06-04T07:55:43;1.45;;;0.98;;
56242;SDS011;42155;53.096;23.226;2023-06-04T07:57:43;2.15;;;0.70;;
56242;SDS011;42155;53.096;23.226;2023-06-04T07:59:44;2.13;;;0.80;;
56242;SDS011;42155;53.096;23.226;2023-06-04T08:01:44;2.50;;;0.73;;
56242;SDS011;42155;53.096;23.226;2023-06-04T08:03:44;2.00;;;0.88;;
56242;SDS011;42155;53.096;23.226;2023-06-04T08:05:45;2.78;;;1.00;;
56242;SDS011;42155;53.096;23.226;2023-06-04T08:07:45;2.42;;;1.00;;
56242;SDS011;42155;53.096;23.226;2023-06-04T08:09:46;3.55;;;0.70;;
56242;SDS011;42155;53.096;23.226;2023-06-04T08:11:46;4.07;;;1.00;;
56242;SDS011;42155;53.096;23.226;2023-06-04T08:13:47;1.70;;;0.88;;
56242;SDS011;42155;53.096;23.226;2023-06-04T08:15:47;3.30;;;0.90;;
56242;SDS011;42155;53.096;23.226;2023-06-04T08:17:48;1.80;;;0.60;;
56242;SDS011;42155;53.096;23.226;2023-06-04T08:19:56;1.52;;;0.80;;
56242;SDS011;42155;53.096;23.226;2023-06-04T08:22:23;2.92;;;0.98;;
56242;SDS011;42155;53.096;23.226;2023-06-04T08:24:24;1.85;;;0.90;;
56242;SDS011;42155;53.096;23.226;2023-06-04T08:26:41;2.78;;;0.85;;
56242;SDS011;42155;53.096;23.226;2023-06-04T08:28:43;2.25;;;0.90;;
56242;SDS011;42155;53.096;23.226;2023-06-04T08:30:43;1.80;;;0.80;;
56242;SDS011;42155;53.096;23.226;2023-06-04T08:32:44;1.25;;;0.80;;
56242;SDS011;42155;53.096;23.226;2023-06-04T08:34:48;3.10;;;0.90;;
56242;SDS011;42155;53.096;23.226;2023-06-04T08:36:49;1.95;;;1.00;;
56242;SDS011;42155;53.096;23.226;2023-06-04T08:38:49;1.33;;;0.82;;
56242;SDS011;42155;53.096;23.226;2023-06-04T08:40:52;3.42;;;0.90;;
56242;SDS011;42155;53.096;23.226;2023-06-04T08:42:57;1.95;;;0.90;;
56242;SDS011;42155;53.096;23.226;2023-06-04T08:45:09;4.65;;;1.20;;
56242;SDS011;42155;53.096;23.226;2023-06-04T08:48:10;1.55;;;0.80;;
56242;SDS011;42155;53.096;23.226;2023-06-04T08:50:31;3.00;;;0.98;;
56242;SDS011;42155;53.096;23.226;2023-06-04T08:52:35;2.97;;;1.10;;
56242;SDS011;42155;53.096;23.226;2023-06-04T08:54:36;3.67;;;0.90;;
56242;SDS011;42155;53.096;23.226;2023-06-04T08:56:37;2.80;;;0.85;;
56242;SDS011;42155;53.096;23.226;2023-06-04T08:58:40;1.80;;;0.85;;
56242;SDS011;42155;53.096;23.226;2023-06-04T09:00:44;3.97;;;1.00;;
56242;SDS011;42155;53.096;23.226;2023-06-04T09:02:45;5.05;;;1.00;;
56242;SDS011;42155;53.096;23.226;2023-06-04T09:04:47;3.30;;;1.08;;
56242;SDS011;42155;53.096;23.226;2023-06-04T09:06:50;2.05;;;0.75;;
56242;SDS011;42155;53.096;23.226;2023-06-04T09:08:52;2.67;;;1.00;;
56242;SDS011;42155;53.096;23.226;2023-06-04T09:10:56;2.63;;;1.00;;
56242;SDS011;42155;53.096;23.226;2023-06-04T09:12:58;1.95;;;1.00;;
56242;SDS011;42155;53.096;23.226;2023-06-04T09:15:01;5.97;;;1.20;;
56242;SDS011;42155;53.096;23.226;2023-06-04T09:17:02;1.63;;;0.90;;
56242;SDS011;42155;53.096;23.226;2023-06-04T09:19:03;7.45;;;1.08;;
56242;SDS011;42155;53.096;23.226;2023-06-04T09:21:05;2.17;;;1.00;;
56242;SDS011;42155;53.096;23.226;2023-06-04T09:23:13;2.00;;;0.90;;
56242;SDS011;42155;53.096;23.226;2023-06-04T09:25:20;9.75;;;1.65;;
56242;SDS011;42155;53.096;23.226;2023-06-04T09:27:25;3.67;;;1.00;;
56242;SDS011;42155;53.096;23.226;2023-06-04T09:29:26;2.17;;;0.85;;
56242;SDS011;42155;53.096;23.226;2023-06-04T09:31:26;1.70;;;0.75;;
56242;SDS011;42155;53.096;23.226;2023-06-04T09:33:26;2.90;;;0.88;;
56242;SDS011;42155;53.096;23.226;2023-06-04T09:35:28;1.50;;;0.80;;
56242;SDS011;42155;53.096;23.226;2023-06-04T09:37:28;3.20;;;0.80;;
56242;SDS011;42155;53.096;23.226;2023-06-04T09:39:28;2.35;;;0.90;;
56242;SDS011;42155;53.096;23.226;2023-06-04T09:41:29;4.07;;;1.23;;
56242;SDS011;42155;53.096;23.226;2023-06-04T09:43:29;2.92;;;1.10;;
56242;SDS011;42155;53.096;23.226;2023-06-04T09:45:31;3.35;;;1.00;;
56242;SDS011;42155;53.096;23.226;2023-06-04T09:47:41;2.88;;;1.00;;
56242;SDS011;42155;53.096;23.226;2023-06-04T09:51:46;3.22;;;1.20;;
56242;SDS011;42155;53.096;23.226;2023-06-04T09:53:54;1.58;;;0.88;;
56242;SDS011;42155;53.096;23.226;2023-06-04T09:55:56;1.70;;;1.08;;
56242;SDS011;42155;53.096;23.226;2023-06-04T09:58:00;5.47;;;1.10;;
56242;SDS011;42155;53.096;23.226;2023-06-04T10:00:03;2.92;;;1.00;;
56242;SDS011;42155;53.096;23.226;2023-06-04T10:02:04;4.50;;;0.80;;
56242;SDS011;42155;53.096;23.226;2023-06-04T10:04:08;3.33;;;0.90;;
56242;SDS011;42155;53.096;23.226;2023-06-04T10:06:09;2.80;;;0.90;;
56242;SDS011;42155;53.096;23.226;2023-06-04T10:08:11;1.40;;;0.82;;
56242;SDS011;42155;53.096;23.226;2023-06-04T10:10:19;2.05;;;1.00;;
56242;SDS011;42155;53.096;23.226;2023-06-04T10:12:23;2.28;;;0.90;;
56242;SDS011;42155;53.096;23.226;2023-06-04T10:14:37;1.55;;;0.85;;
56242;SDS011;42155;53.096;23.226;2023-06-04T10:16:41;1.75;;;1.00;;
56242;SDS011;42155;53.096;23.226;2023-06-04T10:18:42;1.20;;;0.80;;
56242;SDS011;42155;53.096;23.226;2023-06-04T10:20:44;1.67;;;1.02;;
56242;SDS011;42155;53.096;23.226;2023-06-04T10:22:45;2.80;;;1.02;;
56242;SDS011;42155;53.096;23.226;2023-06-04T10:24:45;3.28;;;0.90;;
56242;SDS011;42155;53.096;23.226;2023-06-04T10:26:46;2.08;;;0.85;;
56242;SDS011;42155;53.096;23.226;2023-06-04T10:28:47;1.38;;;0.93;;
56242;SDS011;42155;53.096;23.226;2023-06-04T10:30:48;3.50;;;0.90;;
56242;SDS011;42155;53.096;23.226;2023-06-04T10:32:48;3.97;;;0.90;;
56242;SDS011;42155;53.096;23.226;2023-06-04T10:34:50;2.90;;;0.90;;
56242;SDS011;42155;53.096;23.226;2023-06-04T10:36:51;1.33;;;0.80;;
56242;SDS011;42155;53.096;23.226;2023-06-04T10:38:53;2.45;;;0.93;;
56242;SDS011;42155;53.096;23.226;2023-06-04T10:40:54;2.95;;;0.90;;
56242;SDS011;42155;53.096;23.226;2023-06-04T10:42:54;2.72;;;1.30;;
56242;SDS011;42155;53.096;23.226;2023-06-04T10:44:55;1.80;;;0.95;;
56242;SDS011;42155;53.096;23.226;2023-06-04T10:46:56;3.20;;;1.00;;
56242;SDS011;42155;53.096;23.226;2023-06-04T10:48:57;1.10;;;0.80;;
56242;SDS011;42155;53.096;23.226;2023-06-04T10:50:57;1.25;;;0.80;;
56242;SDS011;42155;53.096;23.226;2023-06-04T10:52:58;1.02;;;0.73;;
56242;SDS011;42155;53.096;23.226;2023-06-04T10:55:05;2.40;;;0.82;;
56242;SDS011;42155;53.096;23.226;2023-06-04T10:57:10;3.05;;;0.82;;
56242;SDS011;42155;53.096;23.226;2023-06-04T10:59:15;1.73;;;0.93;;
56242;SDS011;42155;53.096;23.226;2023-06-04T11:01:23;1.90;;;0.80;;
56242;SDS011;42155;53.096;23.226;2023-06-04T11:03:37;2.80;;;1.10;;
56242;SDS011;42155;53.096;23.226;2023-06-04T11:05:42;2.75;;;1.00;;
56242;SDS011;42155;53.096;23.226;2023-06-04T11:07:44;2.00;;;0.90;;
56242;SDS011;42155;53.096;23.226;2023-06-04T11:09:49;2.97;;;0.88;;
56242;SDS011;42155;53.096;23.226;2023-06-04T11:11:56;3.05;;;0.90;;
56242;SDS011;42155;53.096;23.226;2023-06-04T11:14:10;3.45;;;1.13;;
56242;SDS011;42155;53.096;23.226;2023-06-04T11:16:14;4.43;;;0.80;;
56242;SDS011;42155;53.096;23.226;2023-06-04T11:18:20;4.00;;;1.00;;
56242;SDS011;42155;53.096;23.226;2023-06-04T11:20:21;6.25;;;0.88;;
56242;SDS011;42155;53.096;23.226;2023-06-04T11:22:23;1.90;;;0.98;;
56242;SDS011;42155;53.096;23.226;2023-06-04T11:24:23;3.63;;;0.90;;
56242;SDS011;42155;53.096;23.226;2023-06-04T11:26:33;2.78;;;0.80;;
56242;SDS011;42155;53.096;23.226;2023-06-04T11:28:35;1.65;;;0.70;;
56242;SDS011;42155;53.096;23.226;2023-06-04T11:30:36;3.92;;;0.90;;
56242;SDS011;42155;53.096;23.226;2023-06-04T11:32:38;1.98;;;0.98;;
56242;SDS011;42155;53.096;23.226;2023-06-04T11:34:39;1.20;;;0.80;;
56242;SDS011;42155;53.096;23.226;2023-06-04T11:36:40;1.95;;;0.90;;
56242;SDS011;42155;53.096;23.226;2023-06-04T11:38:40;2.67;;;0.88;;
56242;SDS011;42155;53.096;23.226;2023-06-04T11:40:40;1.50;;;0.80;;
56242;SDS011;42155;53.096;23.226;2023-06-04T11:42:41;3.63;;;0.85;;
56242;SDS011;42155;53.096;23.226;2023-06-04T11:44:41;2.53;;;0.82;;
56242;SDS011;42155;53.096;23.226;2023-06-04T11:46:42;1.10;;;0.70;;
56242;SDS011;42155;53.096;23.226;2023-06-04T11:48:43;1.67;;;0.82;;
56242;SDS011;42155;53.096;23.226;2023-06-04T11:50:44;3.20;;;0.70;;
56242;SDS011;42155;53.096;23.226;2023-06-04T11:52:44;2.42;;;1.02;;
56242;SDS011;42155;53.096;23.226;2023-06-04T11:54:45;1.30;;;0.80;;
56242;SDS011;42155;53.096;23.226;2023-06-04T11:56:45;1.95;;;0.80;;
56242;SDS011;42155;53.096;23.226;2023-06-04T11:58:48;1.80;;;0.80;;
56242;SDS011;42155;53.096;23.226;2023-06-04T12:00:48;2.15;;;0.90;;
56242;SDS011;42155;53.096;23.226;2023-06-04T12:02:53;3.85;;;0.80;;
56242;SDS011;42155;53.096;23.226;2023-06-04T12:04:55;2.55;;;0.80;;
56242;SDS011;42155;53.096;23.226;2023-06-04T12:06:56;3.92;;;0.80;;
56242;SDS011;42155;53.096;23.226;2023-06-04T12:08:58;1.58;;;0.70;;
56242;SDS011;42155;53.096;23.226;2023-06-04T12:10:58;3.22;;;0.90;;
56242;SDS011;42155;53.096;23.226;2023-06-04T12:12:58;1.27;;;0.82;;